Nearby METAR Reports

 

EGMC - Southend-On-Sea, United Kingdom
Distance from station: NE 10km
Updated: 21/10/2018 09:50
Partly cloudy
Partly cloudy
 Wind from SW
Wind: SW 7 mph , 11 km/h
Temperature: 13°C
Dew Point: 10°C
Humidity: 82%
Barometer: 1028 hPa
Clouds: Partly cloudy
Visibility: 6 miles , 9 km
2018/10/21 08:50 EGMC 210850Z 22006KT 9000 NSC 13/10 Q1028
EGLC - London City Airp, United Kingdom
Distance from station: W 37km
Updated: 21/10/2018 09:50
Clear
Clear
 Wind from WSW
Wind: WSW 7 mph , 11 km/h
Temperature: 13°C
Dew Point: 11°C
Humidity: 88%
Barometer: 1028 hPa
Clouds: Clear
Visibility: 6 miles , 9 km
2018/10/21 08:50 EGLC 210850Z AUTO 24006KT 9000 NCD 13/11 Q1028
EGKB - Biggin Hill, United Kingdom
Distance from station: WSW 45km
Updated: 21/10/2018 09:50
Clear
Clear
 Wind from W
Wind: W 7 mph , 11 km/h
Temperature: 13°C
Dew Point: 11°C
Humidity: 88%
Barometer: 1028 hPa
Summary: Clear
Visibility: greater than 7 miles , 10 km
2018/10/21 08:50 EGKB 210850Z 26006KT 220V290 CAVOK 13/11 Q1028
 
EGSS - Stansted Airport, United Kingdom
Distance from station: NNW 48km
Updated: 21/10/2018 09:50
Mist, Few clouds
Mist, Few clouds
 Wind from SW
Wind: SW 7 mph , 11 km/h
Temperature: 11°C
Dew Point: 11°C
Humidity: 100%
Barometer: 1028 hPa
Summary: Mist
Clouds: Few Clouds
Visibility: 3 miles , 4 km
Cloud details: Few Clouds 30 m
2018/10/21 08:50 EGSS 210850Z AUTO 22006KT 4200 BR FEW001 11/11 Q1028
EGKK - London/Gatwick A, United Kingdom
Distance from station: SW 67km
Updated: 21/10/2018 09:50
Nearby fog, Partly cloudy
Nearby fog, Partly cloudy
 Wind from varies
Wind: varies 3 mph , 6 km/h
Temperature: 10°C
Dew Point: 9°C
Humidity: 94%
Barometer: 1028 hPa
Summary: Nearby Fog
Clouds: Partly cloudy
Visibility: 5 miles , 8 km
2018/10/21 08:50 EGKK 210850Z VRB03KT 8000 VCFG NSC 10/09 Q1028
EGMD - Lydd Airport, United Kingdom
Distance from station: SSE 67km
Updated: 21/10/2018 09:50
Clear
Clear
 Wind from varies
Wind: varies 2 mph , 4 km/h
Temperature: 12°C
Dew Point: 11°C
Humidity: 94%
Barometer: 1029 hPa
Summary: Clear
Visibility: greater than 7 miles , 10 km
2018/10/21 08:50 EGMD 210850Z VRB02KT CAVOK 12/11 Q1029
 
EGWU - Northolt Raf, United Kingdom
Distance from station: W 69km
Updated: 21/10/2018 09:50
Fog, Clear
Fog, Clear
 Wind from SSW
Wind: SSW 3 mph , 6 km/h
Temperature: 9°C
Dew Point: 9°C
Humidity: 100%
Barometer: 1028 hPa
Summary: Fog
Clouds: Clear
Visibility: 1 mile , 1 km
2018/10/21 08:50 EGWU 210850Z 21003KT 0900 FG SKC 09/09 Q1028 AMB BECMG 4000 BR FEW005 GRN
EGLL - London/Heathrow, United Kingdom
Distance from station: W 72km
Updated: 21/10/2018 09:50
Mist, Partly cloudy
Mist, Partly cloudy
 Wind from SW
Wind: SW 5 mph , 7 km/h
Temperature: 10°C
Wind Chill: 9°C
Dew Point: 9°C
Humidity: 94%
Barometer: 1029 hPa
Summary: Mist
Clouds: Partly cloudy
Visibility: 2 miles , 4 km
Cloud details: Partly cloudy 30 m
2018/10/21 08:50 EGLL 210850Z 22004KT 180V240 4000 1000NW R27R/P1500 R27L/P1500 BR SCT001 10/09 Q1029
EGUW - Wattisham Raf, United Kingdom
Distance from station: NNE 72km
Updated: 21/10/2018 09:50
Mist, Clear
Mist, Clear
 Wind from SSW
Wind: SSW 6 mph , 9 km/h
Temperature: 12°C
Dew Point: 11°C
Humidity: 94%
Barometer: 1027 hPa
Summary: Mist
Clouds: Clear
Visibility: 3 miles , 5 km
2018/10/21 08:50 EGUW 210850Z AUTO 21005KT 5000 BR NCD 12/11 Q1027
 
EGGW - Luton Airport, United Kingdom
Distance from station: WNW 76km
Updated: 21/10/2018 09:50
Clear
Clear
 Wind from W
Wind: W 12 mph , 19 km/h
Temperature: 13°C
Dew Point: 10°C
Humidity: 82%
Barometer: 1027 hPa
Clouds: Clear
Visibility: 6 miles , 10 km
2018/10/21 08:50 EGGW 210850Z AUTO 27010KT 9999 NCD 13/10 Q1027
EGSC - Cambridge, United Kingdom
Distance from station: NNW 81km
Updated: 21/10/2018 09:50
Partly cloudy
Partly cloudy
 Wind from WSW
Wind: WSW 8 mph , 13 km/h
Temperature: 12°C
Dew Point: 10°C
Humidity: 88%
Barometer: 1027 hPa
Clouds: Partly cloudy
Visibility: 5 miles , 8 km
2018/10/21 08:50 EGSC 210850Z 24007KT 8000 NSC 12/10 Q1027